createdAt,value
2023-05-18T00:00:23.965Z,83.691406
2023-05-18T00:01:33.601Z,83.691406
2023-05-18T00:02:40.430Z,84.100342
2023-05-18T00:03:50.153Z,84.307861
2023-05-18T00:04:58.652Z,84.716797
2023-05-18T00:06:06.284Z,84.820557
2023-05-18T00:07:15.957Z,84.924316
2023-05-18T00:08:24.616Z,85.125732
2023-05-18T00:09:33.299Z,85.028076
2023-05-18T00:10:41.937Z,84.985352
2023-05-18T00:11:50.688Z,84.985352
2023-05-18T00:13:00.351Z,85.089111
2023-05-18T00:14:09.987Z,84.985352
2023-05-18T00:15:19.697Z,85.089111
2023-05-18T00:16:29.406Z,84.94873
2023-05-18T00:17:38.163Z,84.741211
2023-05-18T00:18:47.801Z,84.332275
2023-05-18T00:19:57.418Z,84.436035
2023-05-18T00:21:06.090Z,84.332275
2023-05-18T00:22:15.730Z,84.332275
2023-05-18T00:23:24.380Z,84.0271
2023-05-18T00:24:36.320Z,83.81958
2023-05-18T00:25:43.759Z,83.71582
2023-05-18T00:26:51.425Z,84.228516
2023-05-18T00:28:01.078Z,84.124756
2023-05-18T00:29:10.715Z,84.228516
2023-05-18T00:30:19.382Z,84.228516
2023-05-18T00:31:28.068Z,84.332275
2023-05-18T00:32:37.780Z,84.436035
2023-05-18T00:33:49.191Z,84.533691
2023-05-18T00:34:56.849Z,84.332275
2023-05-18T00:36:06.500Z,84.637451
2023-05-18T00:37:16.153Z,84.533691
2023-05-18T00:38:24.800Z,84.533691
2023-05-18T00:39:33.573Z,84.533691
2023-05-18T00:40:42.245Z,84.533691
2023-05-18T00:41:51.856Z,84.436035
2023-05-18T00:43:01.536Z,84.332275
2023-05-18T00:44:10.282Z,84.228516
2023-05-18T00:45:18.979Z,84.124756
2023-05-18T00:46:28.723Z,84.124756
2023-05-18T00:47:37.331Z,84.124756
2023-05-18T00:48:45.963Z,83.92334
2023-05-18T00:49:54.645Z,83.81958
2023-05-18T00:51:03.328Z,83.81958
2023-05-18T00:52:11.959Z,83.71582
2023-05-18T00:53:21.602Z,83.81958
2023-05-18T00:54:29.276Z,83.654785
2023-05-18T00:55:38.974Z,83.447266
2023-05-18T00:56:48.624Z,83.758545
2023-05-18T00:57:57.229Z,83.959961
2023-05-18T00:59:05.898Z,83.654785
2023-05-18T01:00:14.534Z,83.551025
2023-05-18T01:01:24.194Z,83.447266
2023-05-18T01:02:32.863Z,83.343506
2023-05-18T01:03:40.511Z,83.654785
2023-05-18T01:04:50.183Z,83.447266
2023-05-18T01:05:58.823Z,83.758545
2023-05-18T01:07:08.472Z,83.856201
2023-05-18T01:08:18.142Z,83.758545
2023-05-18T01:09:27.790Z,83.654785
2023-05-18T01:10:37.494Z,83.343506
2023-05-18T01:11:47.167Z,83.551025
2023-05-18T01:12:55.880Z,83.447266
2023-05-18T01:14:05.501Z,83.691406
2023-05-18T01:15:15.157Z,83.48999
2023-05-18T01:16:23.924Z,83.587646
2023-05-18T01:17:32.533Z,83.587646
2023-05-18T01:18:41.177Z,83.795166
2023-05-18T01:19:50.797Z,83.898926
2023-05-18T01:20:59.431Z,84.002686
2023-05-18T01:22:09.120Z,84.204102
2023-05-18T01:23:18.771Z,84.143066
2023-05-18T01:24:27.418Z,84.552002
2023-05-18T01:25:36.084Z,84.448242
2023-05-18T01:26:43.728Z,84.857178
2023-05-18T01:27:52.371Z,84.759521
2023-05-18T01:29:02.060Z,84.759521
2023-05-18T01:30:10.677Z,84.759521
2023-05-18T01:31:20.374Z,84.899902
2023-05-18T01:32:30.028Z,84.960938
2023-05-18T01:33:38.660Z,85.107422
2023-05-18T01:34:47.328Z,85.412598
2023-05-18T01:35:55.984Z,85.003662
2023-05-18T01:37:05.629Z,85.064697
2023-05-18T01:38:15.269Z,84.857178
2023-05-18T01:39:24.927Z,85.003662
2023-05-18T01:40:32.617Z,85.107422
2023-05-18T01:41:42.298Z,85.308838
2023-05-18T01:42:51.009Z,85.620117
2023-05-18T01:43:59.652Z,85.717773
2023-05-18T01:45:09.413Z,85.784912
2023-05-18T01:46:18.108Z,85.473633
2023-05-18T01:47:27.728Z,85.205078
2023-05-18T01:48:35.337Z,85.003662
2023-05-18T01:49:44.009Z,85.107422
2023-05-18T01:50:53.669Z,85.412598
2023-05-18T01:52:02.326Z,85.308838
2023-05-18T01:53:11.982Z,85.412598
2023-05-18T01:54:20.691Z,85.351562
2023-05-18T01:55:29.524Z,85.516357
2023-05-18T01:56:39.065Z,85.620117
2023-05-18T01:57:47.730Z,85.968018
2023-05-18T01:58:57.367Z,85.968018
2023-05-18T02:00:06.053Z,86.376953
2023-05-18T02:01:14.748Z,86.682129
2023-05-18T02:02:23.444Z,86.889648
2023-05-18T02:03:33.108Z,86.376953
2023-05-18T02:04:41.663Z,86.889648
2023-05-18T02:05:50.310Z,86.437988
2023-05-18T02:06:58.957Z,86.334229
2023-05-18T02:08:08.623Z,86.541748
2023-05-18T02:09:19.368Z,86.437988
2023-05-18T02:10:29.037Z,86.029053
2023-05-18T02:11:36.708Z,86.029053
2023-05-18T02:12:46.401Z,85.925293
2023-05-18T02:13:55.056Z,85.717773
2023-05-18T02:15:04.725Z,85.473633
2023-05-18T02:16:12.426Z,85.168457
2023-05-18T02:17:22.201Z,85.168457
2023-05-18T02:18:30.722Z,85.107422
2023-05-18T02:19:38.431Z,85.473633
2023-05-18T02:20:48.005Z,85.272217
2023-05-18T02:21:57.698Z,85.375977
2023-05-18T02:23:06.388Z,85.577393
2023-05-18T02:24:16.065Z,85.473633
2023-05-18T02:25:24.719Z,85.272217
2023-05-18T02:26:34.394Z,85.272217
2023-05-18T02:27:43.194Z,84.960938
2023-05-18T02:28:50.844Z,85.064697
2023-05-18T02:30:00.479Z,84.960938
2023-05-18T02:31:09.117Z,85.168457
2023-05-18T02:32:18.801Z,85.272217
2023-05-18T02:33:27.461Z,85.473633
2023-05-18T02:34:36.070Z,85.333252
2023-05-18T02:35:45.763Z,84.820557
2023-05-18T02:36:55.438Z,85.028076
2023-05-18T02:38:05.181Z,85.125732
2023-05-18T02:39:15.828Z,85.229492
2023-05-18T02:40:24.519Z,85.437012
2023-05-18T02:41:33.176Z,85.125732
2023-05-18T02:42:41.832Z,85.229492
2023-05-18T02:43:51.515Z,85.125732
2023-05-18T02:45:01.155Z,85.028076
2023-05-18T02:46:09.898Z,85.125732
2023-05-18T02:47:17.508Z,84.924316
2023-05-18T02:48:27.151Z,84.924316
2023-05-18T02:49:36.878Z,84.716797
2023-05-18T02:50:46.519Z,84.820557
2023-05-18T02:51:55.205Z,84.820557
2023-05-18T02:53:03.862Z,84.820557
2023-05-18T02:54:13.528Z,84.820557
2023-05-18T02:55:22.275Z,85.028076
2023-05-18T02:56:30.913Z,85.125732
2023-05-18T02:57:40.654Z,85.028076
2023-05-18T02:58:50.278Z,85.028076
2023-05-18T02:59:58.953Z,84.924316
2023-05-18T03:01:07.753Z,85.028076
2023-05-18T03:02:17.345Z,85.540771
2023-05-18T03:03:27.015Z,86.053467
2023-05-18T03:04:36.652Z,85.949707
2023-05-18T03:05:45.344Z,86.151123
2023-05-18T03:06:55.003Z,86.151123
2023-05-18T03:08:04.725Z,86.706543
2023-05-18T03:09:13.370Z,86.914062
2023-05-18T03:10:22.351Z,86.706543
2023-05-18T03:11:31.022Z,87.017822
2023-05-18T03:12:40.724Z,86.975098
2023-05-18T03:13:48.362Z,86.914062
2023-05-18T03:14:57.022Z,86.810303
2023-05-18T03:16:06.749Z,87.115479
2023-05-18T03:17:16.398Z,87.628174
2023-05-18T03:18:25.042Z,87.530518
2023-05-18T03:19:34.743Z,87.530518
2023-05-18T03:20:44.394Z,87.530518
2023-05-18T03:21:54.057Z,87.219238
2023-05-18T03:23:03.701Z,87.322998
2023-05-18T03:24:12.371Z,87.322998
2023-05-18T03:25:22.037Z,87.731934
2023-05-18T03:26:30.658Z,87.835693
2023-05-18T03:27:39.304Z,88.079834
2023-05-18T03:28:47.995Z,88.494873
2023-05-18T03:29:57.667Z,89.007568
2023-05-18T03:31:07.430Z,89.111328
2023-05-18T03:32:17.050Z,89.007568
2023-05-18T03:33:24.722Z,89.007568
2023-05-18T03:34:33.390Z,89.007568
2023-05-18T03:35:43.035Z,89.312744
2023-05-18T03:36:52.716Z,89.208984
2023-05-18T03:38:01.468Z,89.007568
2023-05-18T03:39:11.081Z,88.800049
2023-05-18T03:40:20.714Z,88.696289
2023-05-18T03:41:28.359Z,88.391113
2023-05-18T03:42:38.039Z,88.800049
2023-05-18T03:43:47.723Z,89.007568
2023-05-18T03:44:56.366Z,89.208984
2023-05-18T03:46:05.030Z,89.208984
2023-05-18T03:47:13.797Z,89.520264
2023-05-18T03:48:23.437Z,89.416504
2023-05-18T03:49:33.180Z,89.416504
2023-05-18T03:50:41.851Z,89.520264
2023-05-18T03:51:50.622Z,89.72168
2023-05-18T03:53:00.257Z,89.520264
2023-05-18T03:54:08.961Z,89.520264
2023-05-18T03:55:17.566Z,89.312744
2023-05-18T03:56:26.340Z,89.520264
2023-05-18T03:57:36.032Z,89.416504
2023-05-18T03:58:45.683Z,89.72168
2023-05-18T03:59:53.391Z,89.520264
2023-05-18T04:01:03.083Z,89.72168
2023-05-18T04:02:12.741Z,89.929199
2023-05-18T04:03:21.681Z,90.136719
2023-05-18T04:04:30.110Z,90.032959
2023-05-18T04:05:38.767Z,90.032959
2023-05-18T04:06:48.421Z,90.032959
2023-05-18T04:07:58.070Z,89.825439
2023-05-18T04:09:05.713Z,89.685059
2023-05-18T04:10:14.466Z,89.581299
2023-05-18T04:11:24.098Z,90.39917
2023-05-18T04:12:33.733Z,90.911865
2023-05-18T04:13:43.384Z,90.9729
2023-05-18T04:14:53.069Z,90.771484
2023-05-18T04:16:02.781Z,90.258789
2023-05-18T04:17:11.407Z,90.356445
2023-05-18T04:18:20.072Z,90.460205
2023-05-18T04:19:29.771Z,90.05127
2023-05-18T04:20:38.415Z,90.05127
2023-05-18T04:21:47.117Z,89.434814
2023-05-18T04:22:56.741Z,89.331055
2023-05-18T04:24:06.429Z,89.39209
2023-05-18T04:25:15.170Z,89.599609
2023-05-18T04:26:24.832Z,89.190674
2023-05-18T04:27:34.476Z,88.983154
2023-05-18T04:28:44.114Z,89.147949
2023-05-18T04:29:51.788Z,88.94043
2023-05-18T04:31:00.445Z,88.739014
2023-05-18T04:32:10.269Z,88.739014
2023-05-18T04:33:19.776Z,88.287354
2023-05-18T04:34:28.466Z,88.183594
2023-05-18T04:35:37.097Z,87.982178
2023-05-18T04:36:46.783Z,87.774658
2023-05-18T04:37:56.434Z,87.567139
2023-05-18T04:39:04.163Z,87.774658
2023-05-18T04:40:11.811Z,87.670898
2023-05-18T04:41:21.465Z,87.774658
2023-05-18T04:42:30.140Z,87.121582
2023-05-18T04:43:38.806Z,86.810303
2023-05-18T04:44:47.499Z,86.608887
2023-05-18T04:45:57.138Z,86.303711
2023-05-18T04:47:06.810Z,86.712646
2023-05-18T04:48:15.490Z,86.303711
2023-05-18T04:49:23.155Z,86.645508
2023-05-18T04:50:32.796Z,86.853027
2023-05-18T04:51:41.420Z,87.060547
2023-05-18T04:52:50.113Z,86.914062
2023-05-18T04:53:58.756Z,86.608887
2023-05-18T04:55:07.390Z,86.810303
2023-05-18T04:56:17.063Z,86.364746
2023-05-18T04:57:26.716Z,86.096191
2023-05-18T04:58:35.410Z,85.992432
2023-05-18T04:59:45.028Z,85.888672
2023-05-18T05:00:54.756Z,85.992432
2023-05-18T05:02:04.405Z,86.260986
2023-05-18T05:03:13.122Z,85.644531
2023-05-18T05:04:21.725Z,85.60791
2023-05-18T05:05:31.546Z,85.71167
2023-05-18T05:06:39.058Z,85.809326
2023-05-18T05:07:47.707Z,85.400391
2023-05-18T05:08:57.371Z,84.991455
2023-05-18T05:10:07.037Z,84.851074
2023-05-18T05:11:16.901Z,84.747314
2023-05-18T05:12:25.565Z,84.136963
2023-05-18T05:13:35.287Z,83.868408
2023-05-18T05:14:44.960Z,83.868408
2023-05-18T05:15:54.773Z,84.381104
2023-05-18T05:17:03.473Z,84.173584
2023-05-18T05:18:13.128Z,83.831787
2023-05-18T05:19:21.802Z,84.136963
2023-05-18T05:20:30.460Z,83.831787
2023-05-18T05:21:40.149Z,83.789062
2023-05-18T05:22:48.820Z,83.178711
2023-05-18T05:23:58.425Z,83.380127
2023-05-18T05:25:08.091Z,83.483887
2023-05-18T05:26:15.724Z,83.178711
2023-05-18T05:27:25.372Z,83.074951
2023-05-18T05:28:34.011Z,83.178711
2023-05-18T05:29:41.763Z,82.769775
2023-05-18T05:30:50.473Z,82.562256
2023-05-18T05:31:59.117Z,82.525635
2023-05-18T05:33:08.810Z,82.525635
2023-05-18T05:34:18.413Z,82.525635
2023-05-18T05:35:27.100Z,82.830811
2023-05-18T05:36:37.727Z,82.830811
2023-05-18T05:37:46.354Z,82.220459
2023-05-18T05:38:56.002Z,81.90918
2023-05-18T05:40:04.705Z,82.318115
2023-05-18T05:41:13.361Z,82.385254
2023-05-18T05:42:23.071Z,82.385254
2023-05-18T05:43:30.704Z,81.567383
2023-05-18T05:44:38.436Z,81.90918
2023-05-18T05:45:48.081Z,81.976318
2023-05-18T05:46:56.769Z,82.318115
2023-05-18T05:48:05.409Z,82.318115
2023-05-18T05:49:15.830Z,82.080078
2023-05-18T05:50:24.531Z,82.116699
2023-05-18T05:51:34.197Z,82.385254
2023-05-18T05:52:41.863Z,82.177734
2023-05-18T05:53:49.587Z,81.939697
2023-05-18T05:54:59.238Z,81.695557
2023-05-18T05:56:08.923Z,81.182861
2023-05-18T05:57:19.575Z,81.04248
2023-05-18T05:58:28.275Z,80.944824
2023-05-18T05:59:36.954Z,81.25
2023-05-18T06:00:46.584Z,80.737305
2023-05-18T06:01:54.303Z,80.023193
2023-05-18T06:03:03.012Z,80.334473
2023-05-18T06:04:11.757Z,80.023193
2023-05-18T06:05:21.296Z,79.718018
2023-05-18T06:06:29.940Z,79.656982
2023-05-18T06:07:39.663Z,79.858398
2023-05-18T06:08:49.308Z,80.023193
2023-05-18T06:09:58.968Z,79.925537
2023-05-18T06:11:09.338Z,79.681396
2023-05-18T06:12:17.302Z,79.071045
2023-05-18T06:13:25.935Z,78.765869
2023-05-18T06:14:34.701Z,79.071045
2023-05-18T06:15:44.376Z,78.869629
2023-05-18T06:16:54.078Z,79.272461
2023-05-18T06:18:03.755Z,78.930664
2023-05-18T06:19:12.453Z,78.320312
2023-05-18T06:20:21.040Z,78.833008
2023-05-18T06:21:31.741Z,79.034424
2023-05-18T06:22:40.394Z,78.527832
2023-05-18T06:23:49.085Z,78.729248
2023-05-18T06:24:58.720Z,77.813721
2023-05-18T06:26:07.372Z,78.015137
2023-05-18T06:27:17.020Z,78.015137
2023-05-18T06:28:25.664Z,78.283691
2023-05-18T06:29:35.306Z,77.368164
2023-05-18T06:30:44.981Z,76.617432
2023-05-18T06:31:53.696Z,76.922607
2023-05-18T06:33:02.498Z,77.636719
2023-05-18T06:34:12.122Z,77.398682
2023-05-18T06:35:20.825Z,76.68457
2023-05-18T06:36:29.458Z,76.245117
2023-05-18T06:37:38.113Z,75.732422
2023-05-18T06:38:46.755Z,76.037598
2023-05-18T06:39:56.394Z,75.494385
2023-05-18T06:41:05.049Z,75.292969
2023-05-18T06:42:14.698Z,75.292969
2023-05-18T06:43:24.404Z,74.884033
2023-05-18T06:44:33.049Z,74.749756
2023-05-18T06:45:41.746Z,74.713135
2023-05-18T06:46:51.436Z,74.407959
2023-05-18T06:48:01.096Z,73.596191
2023-05-18T06:49:10.744Z,72.210693
2023-05-18T06:50:19.645Z,72.314453
2023-05-18T06:51:29.289Z,71.19751
2023-05-18T06:52:38.916Z,70.52002
2023-05-18T06:53:48.575Z,70.3125
2023-05-18T06:54:57.245Z,70.007324
2023-05-18T06:56:05.928Z,70.98999
2023-05-18T06:57:15.634Z,70.349121
2023-05-18T06:58:25.358Z,70.349121
2023-05-18T06:59:33.027Z,70.245361
2023-05-18T07:00:40.679Z,69.604492
2023-05-18T07:01:50.387Z,68.792725
2023-05-18T07:02:58.996Z,69.470215
2023-05-18T07:04:07.836Z,69.439697
2023-05-18T07:05:17.305Z,68.426514
2023-05-18T07:06:25.955Z,67.681885
2023-05-18T07:07:35.716Z,67.004395
2023-05-18T07:08:45.400Z,66.296387
2023-05-18T07:09:54.125Z,67.077637
2023-05-18T07:11:03.856Z,66.436768
2023-05-18T07:12:13.493Z,64.471436
2023-05-18T07:13:24.180Z,66.369629
2023-05-18T07:14:33.053Z,65.557861
2023-05-18T07:15:41.839Z,65.826416
2023-05-18T07:16:51.509Z,64.715576
2023-05-18T07:17:59.479Z,64.611816
2023-05-18T07:19:08.328Z,64.038086
2023-05-18T07:20:17.851Z,64.471436
2023-05-18T07:21:28.501Z,64.94751
2023-05-18T07:22:37.213Z,63.702393
2023-05-18T07:23:46.891Z,63.427734
2023-05-18T07:24:55.528Z,64.312744
2023-05-18T07:26:05.173Z,63.775635
2023-05-18T07:27:12.829Z,62.860107
2023-05-18T07:28:21.541Z,62.054443
2023-05-18T07:29:31.246Z,62.255859
2023-05-18T07:30:39.892Z,62.731934
2023-05-18T07:31:48.571Z,62.658691
2023-05-18T07:32:58.255Z,62.93335
2023-05-18T07:34:08.852Z,62.658691
2023-05-18T07:35:18.531Z,62.963867
2023-05-18T07:36:27.192Z,62.731934
2023-05-18T07:37:34.952Z,63.134766
2023-05-18T07:38:44.646Z,63.104248
2023-05-18T07:39:54.302Z,62.805176
2023-05-18T07:41:02.980Z,62.371826
2023-05-18T07:42:11.651Z,62.573242
2023-05-18T07:43:20.319Z,62.268066
2023-05-18T07:44:29.983Z,62.744141
2023-05-18T07:45:39.652Z,60.925293
2023-05-18T07:46:48.360Z,61.199951
2023-05-18T07:47:58.000Z,60.565186
2023-05-18T07:49:06.683Z,61.071777
2023-05-18T07:50:15.333Z,60.058594
2023-05-18T07:51:24.020Z,60.565186
2023-05-18T07:52:32.713Z,59.93042
2023-05-18T07:53:42.361Z,59.350586
2023-05-18T07:54:50.049Z,58.721924
2023-05-18T07:55:57.696Z,58.59375
2023-05-18T07:57:07.380Z,59.197998
2023-05-18T07:58:17.062Z,58.666992
2023-05-18T07:59:26.704Z,57.15332
2023-05-18T08:00:36.383Z,57.250977
2023-05-18T08:01:46.064Z,56.951904
2023-05-18T08:02:55.802Z,57.452393
2023-05-18T08:04:05.499Z,57.15332
2023-05-18T08:05:14.059Z,57.000732
2023-05-18T08:06:23.698Z,57.403564
2023-05-18T08:07:32.349Z,56.420898
2023-05-18T08:08:39.983Z,57.556152
2023-05-18T08:09:49.669Z,58.416748
2023-05-18T08:10:58.495Z,59.124756
2023-05-18T08:12:06.967Z,59.124756
2023-05-18T08:13:16.616Z,58.978271
2023-05-18T08:14:25.305Z,59.985352
2023-05-18T08:15:34.965Z,59.857178
2023-05-18T08:16:43.637Z,59.960938
2023-05-18T08:17:52.366Z,59.729004
2023-05-18T08:19:02.128Z,59.399414
2023-05-18T08:20:10.754Z,59.094238
2023-05-18T08:21:20.365Z,58.746338
2023-05-18T08:22:28.979Z,59.558105
2023-05-18T08:23:37.650Z,59.832764
2023-05-18T08:24:47.309Z,59.14917
2023-05-18T08:25:55.962Z,59.832764
2023-05-18T08:27:05.646Z,60.101318
2023-05-18T08:28:15.293Z,59.399414
2023-05-18T08:29:23.997Z,59.49707
2023-05-18T08:30:31.629Z,58.92334
2023-05-18T08:31:40.317Z,59.222412
2023-05-18T08:32:48.953Z,60.308838
2023-05-18T08:33:58.614Z,59.899902
2023-05-18T08:35:08.282Z,58.92334
2023-05-18T08:36:16.930Z,59.558105
2023-05-18T08:37:26.579Z,60.839844
2023-05-18T08:38:35.326Z,60.394287
2023-05-18T08:39:42.975Z,61.029053
2023-05-18T08:40:52.618Z,61.633301
2023-05-18T08:42:02.303Z,61.706543
2023-05-18T08:43:12.094Z,61.431885
2023-05-18T08:44:21.723Z,60.925293
2023-05-18T08:45:31.529Z,61.431885
2023-05-18T08:46:40.061Z,60.925293
2023-05-18T08:47:48.757Z,61.529541
2023-05-18T08:48:58.400Z,61.834717
2023-05-18T08:50:07.039Z,60.852051
2023-05-18T08:51:16.744Z,61.126709
2023-05-18T08:52:26.494Z,61.993408
2023-05-18T08:53:35.205Z,62.121582
2023-05-18T08:54:44.846Z,62.426758
2023-05-18T08:55:52.492Z,62.585449
2023-05-18T08:57:00.203Z,63.366699
2023-05-18T08:58:09.881Z,62.963867
2023-05-18T08:59:18.551Z,62.762451
2023-05-18T09:00:28.196Z,63.470459
2023-05-18T09:01:36.892Z,63.195801
2023-05-18T09:02:45.521Z,63.195801
2023-05-18T09:03:55.132Z,62.792969
2023-05-18T09:05:03.788Z,62.615967
2023-05-18T09:06:13.474Z,63.092041
2023-05-18T09:07:23.139Z,64.312744
2023-05-18T09:08:31.813Z,63.842773
2023-05-18T09:09:41.445Z,63.812256
2023-05-18T09:10:51.152Z,62.774658
2023-05-18T09:11:59.794Z,61.962891
2023-05-18T09:13:09.423Z,61.938477
2023-05-18T09:14:18.084Z,62.005615
2023-05-18T09:15:26.806Z,62.005615
2023-05-18T09:16:36.615Z,61.199951
2023-05-18T09:17:46.283Z,61.401367
2023-05-18T09:18:54.952Z,61.273193
2023-05-18T09:20:03.555Z,60.662842
2023-05-18T09:21:12.199Z,60.461426
2023-05-18T09:22:21.876Z,60.522461
2023-05-18T09:23:29.527Z,60.925293
2023-05-18T09:24:37.194Z,61.633301
2023-05-18T09:25:46.870Z,61.633301
2023-05-18T09:26:55.521Z,61.462402
2023-05-18T09:28:05.207Z,62.731934
2023-05-18T09:29:12.860Z,62.860107
2023-05-18T09:30:22.565Z,62.762451
2023-05-18T09:31:32.298Z,63.165283
2023-05-18T09:32:41.904Z,63.775635
2023-05-18T09:33:50.589Z,63.134766
2023-05-18T09:35:00.203Z,63.946533
2023-05-18T09:36:08.848Z,63.006592
2023-05-18T09:37:18.497Z,63.208008
2023-05-18T09:38:27.201Z,63.513184
2023-05-18T09:39:35.950Z,63.946533
2023-05-18T09:40:45.599Z,63.366699
2023-05-18T09:41:53.244Z,63.775635
2023-05-18T09:43:01.973Z,63.366699
2023-05-18T09:44:12.326Z,62.628174
2023-05-18T09:45:21.009Z,63.006592
2023-05-18T09:46:29.671Z,63.378906
2023-05-18T09:47:38.431Z,62.573242
2023-05-18T09:48:47.044Z,62.872314
2023-05-18T09:49:56.705Z,63.006592
2023-05-18T09:51:06.412Z,63.61084
2023-05-18T09:52:14.058Z,62.902832
2023-05-18T09:53:23.767Z,62.701416
2023-05-18T09:54:32.449Z,63.61084
2023-05-18T09:55:43.105Z,62.93335
2023-05-18T09:57:02.292Z,63.409424
2023-05-18T09:58:01.455Z,62.023926
2023-05-18T09:59:11.106Z,63.037109
2023-05-18T10:00:20.089Z,63.037109
2023-05-18T10:01:28.509Z,63.409424
2023-05-18T10:02:38.174Z,61.895752
2023-05-18T10:03:47.877Z,61.962891
2023-05-18T10:04:56.451Z,61.895752
2023-05-18T10:06:05.124Z,61.82251
2023-05-18T10:07:14.823Z,62.5
2023-05-18T10:08:24.632Z,62.872314
2023-05-18T10:09:34.375Z,62.310791
2023-05-18T10:10:41.986Z,60.36377
2023-05-18T10:11:51.700Z,59.020996
2023-05-18T10:13:00.333Z,58.92334
2023-05-18T10:14:10.015Z,58.392334
2023-05-18T10:15:18.691Z,58.288574
2023-05-18T10:16:27.366Z,59.069824
2023-05-18T10:17:37.138Z,58.636475
2023-05-18T10:18:45.736Z,57.653809
2023-05-18T10:19:54.372Z,58.032227
2023-05-18T10:21:04.065Z,57.122803
2023-05-18T10:22:12.860Z,56.622314
2023-05-18T10:23:21.658Z,56.420898
2023-05-18T10:24:30.327Z,55.566406
2023-05-18T10:25:39.034Z,57.409668
2023-05-18T10:26:49.650Z,58.48999
2023-05-18T10:27:59.319Z,58.288574
2023-05-18T10:29:07.015Z,58.319092
2023-05-18T10:30:16.671Z,57.867432
2023-05-18T10:31:26.349Z,59.136963
2023-05-18T10:32:34.975Z,59.613037
2023-05-18T10:33:43.610Z,60.144043
2023-05-18T10:34:52.277Z,60.144043
2023-05-18T10:36:02.189Z,60.375977
2023-05-18T10:37:12.346Z,60.882568
2023-05-18T10:38:21.430Z,61.895752
2023-05-18T10:39:31.096Z,62.268066
2023-05-18T10:40:39.769Z,61.633301
2023-05-18T10:41:49.713Z,61.663818
2023-05-18T10:42:58.351Z,60.375977
2023-05-18T10:44:08.009Z,60.809326
2023-05-18T10:45:17.805Z,60.705566
2023-05-18T10:46:26.643Z,61.187744
2023-05-18T10:47:36.329Z,61.761475
2023-05-18T10:48:45.534Z,61.730957
2023-05-18T10:49:53.467Z,60.723877
2023-05-18T10:51:03.152Z,60.345459
2023-05-18T10:52:12.858Z,60.925293
2023-05-18T10:53:21.487Z,59.741211
2023-05-18T10:54:30.245Z,60.046387
2023-05-18T10:55:38.905Z,60.955811
2023-05-18T10:56:48.560Z,62.225342
2023-05-18T10:57:58.190Z,62.121582
2023-05-18T10:59:05.849Z,62.298584
2023-05-18T11:00:15.519Z,61.791992
2023-05-18T11:01:24.146Z,61.254883
2023-05-18T11:02:32.798Z,60.754395
2023-05-18T11:03:41.461Z,60.754395
2023-05-18T11:04:51.925Z,60.681152
2023-05-18T11:05:59.818Z,61.315918
2023-05-18T11:07:09.504Z,61.71875
2023-05-18T11:08:18.298Z,62.023926
2023-05-18T11:09:27.920Z,62.121582
2023-05-18T11:10:36.715Z,61.82251
2023-05-18T11:11:46.362Z,61.212158
2023-05-18T11:12:55.049Z,61.621094
2023-05-18T11:14:03.712Z,61.749268
2023-05-18T11:15:13.350Z,62.1521
2023-05-18T11:16:21.211Z,62.054443
2023-05-18T11:17:30.783Z,62.023926
2023-05-18T11:18:40.457Z,61.138916
2023-05-18T11:19:50.087Z,61.645508
2023-05-18T11:20:59.730Z,61.37085
2023-05-18T11:22:08.402Z,62.1521
2023-05-18T11:23:18.060Z,61.749268
2023-05-18T11:24:27.742Z,61.82251
2023-05-18T11:25:37.402Z,61.358643
2023-05-18T11:26:47.158Z,60.852051
2023-05-18T11:27:56.778Z,60.174561
2023-05-18T11:29:05.480Z,60.60791
2023-05-18T11:30:15.884Z,61.38916
2023-05-18T11:31:23.856Z,61.38916
2023-05-18T11:32:33.642Z,61.157227
2023-05-18T11:33:43.243Z,60.821533
2023-05-18T11:34:52.838Z,60.595703
2023-05-18T11:36:00.500Z,60.162354
2023-05-18T11:37:10.481Z,59.558105
2023-05-18T11:38:18.780Z,59.454346
2023-05-18T11:39:27.425Z,58.618164
2023-05-18T11:40:36.178Z,59.454346
2023-05-18T11:41:44.838Z,59.020996
2023-05-18T11:42:54.520Z,59.14917
2023-05-18T11:44:04.200Z,59.887695
2023-05-18T11:45:11.833Z,59.857178
2023-05-18T11:46:21.676Z,59.655762
2023-05-18T11:47:30.384Z,59.93042
2023-05-18T11:48:39.096Z,58.850098
2023-05-18T11:49:47.651Z,58.874512
2023-05-18T11:50:56.371Z,59.887695
2023-05-18T11:52:06.046Z,59.960938
2023-05-18T11:53:15.744Z,60.534668
2023-05-18T11:54:24.393Z,59.020996
2023-05-18T11:55:34.071Z,59.295654
2023-05-18T11:56:42.839Z,59.020996
2023-05-18T11:57:51.500Z,58.691406
2023-05-18T11:59:01.146Z,59.350586
2023-05-18T12:00:09.841Z,59.686279
2023-05-18T12:01:19.524Z,59.58252
2023-05-18T12:02:27.274Z,59.960938
2023-05-18T12:03:35.907Z,60.03418
2023-05-18T12:04:45.633Z,58.92334
2023-05-18T12:05:54.224Z,58.81958
2023-05-18T12:07:02.912Z,59.069824
2023-05-18T12:08:11.543Z,58.740234
2023-05-18T12:09:20.208Z,57.122803
2023-05-18T12:10:30.152Z,56.915283
2023-05-18T12:11:37.537Z,55.078125
2023-05-18T12:12:46.211Z,56.231689
2023-05-18T12:13:55.850Z,55.877686
2023-05-18T12:15:04.562Z,54.650879
2023-05-18T12:16:13.214Z,53.674316
2023-05-18T12:17:20.834Z,52.91748
2023-05-18T12:18:29.496Z,53.948975
2023-05-18T12:19:39.160Z,53.625488
2023-05-18T12:20:48.823Z,55.59082
2023-05-18T12:21:59.021Z,56.066895
2023-05-18T12:23:07.324Z,55.883789
2023-05-18T12:24:16.008Z,55.657959
2023-05-18T12:25:25.711Z,55.078125
2023-05-18T12:26:35.340Z,55.383301
2023-05-18T12:27:44.979Z,54.47998
2023-05-18T12:28:54.719Z,54.980469
2023-05-18T12:30:04.406Z,54.681396
2023-05-18T12:31:13.104Z,54.632568
2023-05-18T12:32:21.722Z,55.963135
2023-05-18T12:33:30.385Z,56.622314
2023-05-18T12:34:40.139Z,57.452393
2023-05-18T12:35:49.780Z,57.556152
2023-05-18T12:36:58.418Z,57.452393
2023-05-18T12:38:08.111Z,57.678223
2023-05-18T12:39:15.782Z,57.043457
2023-05-18T12:40:24.432Z,56.713867
2023-05-18T12:41:33.068Z,56.488037
2023-05-18T12:42:40.742Z,55.310059
2023-05-18T12:43:50.384Z,55.761719
2023-05-18T12:45:00.062Z,56.518555
2023-05-18T12:46:09.800Z,57.427979
2023-05-18T12:47:18.374Z,57.250977
2023-05-18T12:48:27.046Z,58.691406
2023-05-18T12:49:36.706Z,58.795166
2023-05-18T12:50:46.240Z,58.416748
2023-05-18T12:51:53.025Z,59.25293
2023-05-18T12:53:02.661Z,59.075928
2023-05-18T12:54:11.316Z,59.759521
2023-05-18T12:55:19.994Z,59.14917
2023-05-18T12:56:27.663Z,59.625244
2023-05-18T12:57:36.328Z,59.124756
2023-05-18T12:58:46.006Z,58.520508
2023-05-18T12:59:55.648Z,58.416748
2023-05-18T13:01:04.354Z,59.326172
2023-05-18T13:02:13.956Z,58.618164
2023-05-18T13:03:23.028Z,59.295654
2023-05-18T13:04:31.239Z,58.764648
2023-05-18T13:05:39.948Z,58.435059
2023-05-18T13:06:48.622Z,58.233643
2023-05-18T13:07:57.274Z,58.337402
2023-05-18T13:09:05.909Z,57.928467
2023-05-18T13:10:14.561Z,58.288574